Longford, Kansas
Current Conditions -  °F | °C
As of 6:53 PM on Wednesday 22 Oct 2014 (Local Time) from KSLN Reporting Station
Light Rain Light Rain  
Wind Chill: 66°   Ceiling: 10000
Heat Index: 66°   Visibility: 9mi
Dew Point: 59°   Wind: 15mph
Humidity: 78%   Direction: 230°SW
Pressure: 30.05"   Gusts: NA
Location:  39.17°N, 97.33°W
Report Text: KSLN 222353Z 23013KT 9SM -RA OVC100 19/15 A3005 RMK AO2 RAB48 SLP168 P0000 60000 T01890150 10267 20189 53009
Loading
Personal Weather Stations






























Interactive Weather Map
Tropical Storm Tracking
New forecast layout! Learn more

10-Day Weather Forecast

Advertisements
Track Severe Weather on mobile